AAL2588 MMUN-KAUS
Flight info
| Callsign | AAL2588 |
|---|---|
| Flight time | N/A |
| Altitude | 34000 |
| Route | UDGUV2A UDGUV UJ84 CZA UT22 ILOLI UL207 IPSEV L207 SEAGL DCT PSX DCT WAILN WLEEE7 |
| Aircraft | B738/M-SDE2E3FGHIRWXY/LB1 |
Departure
| Time | 2026-05-07 15:08 |
|---|---|
| Airport | Cancún International Airport (MMUN) |
Arrival
| Time | N/A |
|---|---|
| Airport | Austin Bergstrom International Airport (KAUS) |
| Time | Latitude | Longitude | Altitude | Speed | Heading |
|---|---|---|---|---|---|
| 2026-05-07 14:56 | 21.04063 | -86.87697 | 27 ft | 0 kts | 67° |
| 2026-05-07 15:03 | 21.04062 | -86.87722 | 28 ft | 7 kts | 172° |
| 2026-05-07 15:03 | 21.04076 | -86.87720 | 27 ft | 0 kts | 198° |
| 2026-05-07 15:04 | 21.04072 | -86.87721 | 27 ft | 3 kts | 197° |
| 2026-05-07 15:04 | 21.04035 | -86.87754 | 27 ft | 12 kts | 224° |
| 2026-05-07 15:05 | 21.03967 | -86.87849 | 27 ft | 17 kts | 262° |
| 2026-05-07 15:05 | 21.04036 | -86.87990 | 27 ft | 27 kts | 304° |
| 2026-05-07 15:05 | 21.04161 | -86.88189 | 27 ft | 38 kts | 304° |
| 2026-05-07 15:05 | 21.04324 | -86.88451 | 28 ft | 46 kts | 303° |
| 2026-05-07 15:06 | 21.04506 | -86.88741 | 28 ft | 39 kts | 303° |
| 2026-05-07 15:06 | 21.04629 | -86.88942 | 28 ft | 17 kts | 301° |
| 2026-05-07 15:06 | 21.04616 | -86.89023 | 27 ft | 8 kts | 217° |
| 2026-05-07 15:06 | 21.04614 | -86.89025 | 27 ft | 0 kts | 217° |
| 2026-05-07 15:07 | 21.04584 | -86.89048 | 27 ft | 14 kts | 216° |
| 2026-05-07 15:07 | 21.04479 | -86.89000 | 27 ft | 24 kts | 123° |
| 2026-05-07 15:07 | 21.04282 | -86.88687 | 29 ft | 88 kts | 124° |
| 2026-05-07 15:07 | 21.03797 | -86.87918 | 28 ft | 158 kts | 125° |
| 2026-05-07 15:08 | 21.03087 | -86.86808 | 376 ft | 196 kts | 127° |
| 2026-05-07 15:08 | 21.02303 | -86.85521 | 1065 ft | 215 kts | 127° |
| 2026-05-07 15:08 | 21.00974 | -86.84866 | 1919 ft | 219 kts | 181° |
| 2026-05-07 15:08 | 20.99484 | -86.85133 | 2662 ft | 220 kts | 180° |
| 2026-05-07 15:09 | 20.97973 | -86.84922 | 2970 ft | 231 kts | 174° |
| 2026-05-07 15:09 | 20.96352 | -86.85380 | 2983 ft | 257 kts | 210° |
| 2026-05-07 15:09 | 20.94977 | -86.86619 | 3021 ft | 259 kts | 218° |
| 2026-05-07 15:09 | 20.93649 | -86.87925 | 2981 ft | 263 kts | 231° |
| 2026-05-07 15:10 | 20.93031 | -86.89772 | 3010 ft | 273 kts | 265° |
| 2026-05-07 15:10 | 20.93121 | -86.91819 | 3004 ft | 275 kts | 265° |
| 2026-05-07 15:10 | 20.92963 | -86.93859 | 3003 ft | 276 kts | 259° |
| 2026-05-07 15:10 | 20.92693 | -86.95894 | 2991 ft | 276 kts | 257° |
| 2026-05-07 15:11 | 20.92401 | -86.97914 | 2995 ft | 274 kts | 257° |
| 2026-05-07 15:11 | 20.92104 | -86.99932 | 2992 ft | 275 kts | 257° |
| 2026-05-07 15:11 | 20.91814 | -87.01922 | 3436 ft | 275 kts | 257° |
| 2026-05-07 15:11 | 20.91519 | -87.03948 | 4249 ft | 276 kts | 258° |
| 2026-05-07 15:12 | 20.91222 | -87.05992 | 5035 ft | 279 kts | 258° |
| 2026-05-07 15:12 | 20.90922 | -87.08052 | 5773 ft | 282 kts | 258° |
| 2026-05-07 15:12 | 20.90620 | -87.10139 | 6509 ft | 284 kts | 258° |
| 2026-05-07 15:12 | 20.90316 | -87.12233 | 7211 ft | 287 kts | 258° |
| 2026-05-07 15:13 | 20.90009 | -87.14350 | 7785 ft | 287 kts | 259° |
| 2026-05-07 15:13 | 20.89699 | -87.16482 | 7948 ft | 291 kts | 259° |
| 2026-05-07 15:13 | 20.89388 | -87.18628 | 7979 ft | 293 kts | 259° |
| 2026-05-07 15:13 | 20.89073 | -87.20792 | 7975 ft | 295 kts | 259° |
| 2026-05-07 15:14 | 20.88759 | -87.22951 | 7968 ft | 292 kts | 259° |
| 2026-05-07 15:14 | 20.88448 | -87.25085 | 7964 ft | 290 kts | 259° |
| 2026-05-07 15:14 | 20.88139 | -87.27206 | 7966 ft | 288 kts | 259° |
| 2026-05-07 15:14 | 20.87831 | -87.29312 | 7970 ft | 287 kts | 259° |
| 2026-05-07 15:15 | 20.87525 | -87.31410 | 7975 ft | 290 kts | 259° |
| 2026-05-07 15:15 | 20.87211 | -87.33553 | 7984 ft | 294 kts | 259° |
| 2026-05-07 15:15 | 20.86894 | -87.35715 | 7976 ft | 293 kts | 259° |
| 2026-05-07 15:15 | 20.86577 | -87.37870 | 8112 ft | 295 kts | 259° |
| 2026-05-07 15:16 | 20.86256 | -87.40049 | 8753 ft | 297 kts | 259° |
| 2026-05-07 15:16 | 20.85934 | -87.42240 | 9463 ft | 299 kts | 260° |
| 2026-05-07 15:16 | 20.85609 | -87.44445 | 10103 ft | 303 kts | 260° |
| 2026-05-07 15:16 | 20.85272 | -87.46728 | 10363 ft | 321 kts | 260° |
| 2026-05-07 15:17 | 20.84914 | -87.49154 | 10573 ft | 338 kts | 260° |
| 2026-05-07 15:17 | 20.84544 | -87.51664 | 11056 ft | 345 kts | 260° |
| 2026-05-07 15:17 | 20.84165 | -87.54228 | 11500 ft | 353 kts | 260° |
| 2026-05-07 15:17 | 20.83784 | -87.56800 | 12038 ft | 356 kts | 260° |
| 2026-05-07 15:18 | 20.83393 | -87.59435 | 12526 ft | 362 kts | 260° |
| 2026-05-07 15:18 | 20.82996 | -87.62105 | 13134 ft | 364 kts | 260° |
| 2026-05-07 15:18 | 20.82596 | -87.64793 | 13681 ft | 368 kts | 260° |
| 2026-05-07 15:18 | 20.82190 | -87.67513 | 14139 ft | 372 kts | 261° |
| 2026-05-07 15:19 | 20.81784 | -87.70243 | 14694 ft | 373 kts | 260° |
| 2026-05-07 15:19 | 20.81372 | -87.73000 | 15158 ft | 377 kts | 261° |
| 2026-05-07 15:19 | 20.80957 | -87.75777 | 15678 ft | 379 kts | 261° |
| 2026-05-07 15:19 | 20.80507 | -87.78565 | 16160 ft | 384 kts | 258° |
| 2026-05-07 15:20 | 20.79886 | -87.81391 | 16302 ft | 397 kts | 255° |
| 2026-05-07 15:20 | 20.79163 | -87.84288 | 16425 ft | 410 kts | 254° |
| 2026-05-07 15:20 | 20.78406 | -87.87237 | 16555 ft | 422 kts | 254° |
| 2026-05-07 15:20 | 20.77628 | -87.90296 | 16746 ft | 430 kts | 254° |
| 2026-05-07 15:21 | 20.76851 | -87.93409 | 17015 ft | 435 kts | 255° |
| 2026-05-07 15:21 | 20.76078 | -87.96554 | 17413 ft | 437 kts | 255° |
| 2026-05-07 15:21 | 20.75309 | -87.99707 | 17804 ft | 439 kts | 255° |
| 2026-05-07 15:21 | 20.74543 | -88.02862 | 18221 ft | 440 kts | 255° |
| 2026-05-07 15:22 | 20.73771 | -88.06039 | 18502 ft | 443 kts | 255° |
| 2026-05-07 15:22 | 20.72998 | -88.09217 | 18862 ft | 442 kts | 255° |
| 2026-05-07 15:22 | 20.72223 | -88.12398 | 19282 ft | 441 kts | 255° |
| 2026-05-07 15:22 | 20.71757 | -88.15630 | 19622 ft | 443 kts | 269° |
| 2026-05-07 15:23 | 20.72063 | -88.18881 | 19851 ft | 448 kts | 283° |
| 2026-05-07 15:23 | 20.73078 | -88.22043 | 20045 ft | 453 kts | 295° |
| 2026-05-07 15:23 | 20.74424 | -88.25098 | 20316 ft | 456 kts | 295° |
| 2026-05-07 15:23 | 20.75796 | -88.28149 | 20681 ft | 456 kts | 295° |
| 2026-05-07 15:24 | 20.77171 | -88.31208 | 20939 ft | 459 kts | 295° |
| 2026-05-07 15:24 | 20.78545 | -88.34291 | 21220 ft | 460 kts | 295° |
| 2026-05-07 15:24 | 20.79911 | -88.37387 | 21550 ft | 460 kts | 294° |
| 2026-05-07 15:24 | 20.81270 | -88.40494 | 21788 ft | 463 kts | 294° |
| 2026-05-07 15:25 | 20.82630 | -88.43619 | 22092 ft | 463 kts | 294° |
| 2026-05-07 15:25 | 20.83988 | -88.46752 | 22361 ft | 465 kts | 293° |
| 2026-05-07 15:25 | 20.85348 | -88.49894 | 22634 ft | 466 kts | 293° |
| 2026-05-07 15:25 | 20.86710 | -88.53045 | 22904 ft | 467 kts | 293° |
| 2026-05-07 15:26 | 20.88074 | -88.56201 | 23118 ft | 469 kts | 293° |
| 2026-05-07 15:26 | 20.89446 | -88.59373 | 23375 ft | 470 kts | 293° |
| 2026-05-07 15:26 | 20.90820 | -88.62554 | 23606 ft | 471 kts | 293° |
| 2026-05-07 15:26 | 20.92196 | -88.65740 | 23815 ft | 472 kts | 293° |
| 2026-05-07 15:27 | 20.93577 | -88.68939 | 24020 ft | 473 kts | 293° |
| 2026-05-07 15:27 | 20.94955 | -88.72134 | 24236 ft | 474 kts | 293° |
| 2026-05-07 15:27 | 20.96335 | -88.75335 | 24427 ft | 475 kts | 292° |
| 2026-05-07 15:27 | 20.97721 | -88.78550 | 24648 ft | 475 kts | 292° |
| 2026-05-07 15:28 | 20.99102 | -88.81760 | 24857 ft | 475 kts | 292° |
| 2026-05-07 15:28 | 21.00486 | -88.84975 | 25075 ft | 476 kts | 292° |
| 2026-05-07 15:28 | 21.01870 | -88.88196 | 25271 ft | 477 kts | 292° |
| 2026-05-07 15:28 | 21.03258 | -88.91426 | 25444 ft | 478 kts | 292° |
| 2026-05-07 15:29 | 21.04646 | -88.94658 | 25633 ft | 479 kts | 292° |
| 2026-05-07 15:29 | 21.06036 | -88.97894 | 25824 ft | 479 kts | 292° |
| 2026-05-07 15:29 | 21.07429 | -89.01140 | 26007 ft | 480 kts | 292° |
| 2026-05-07 15:29 | 21.08823 | -89.04390 | 26181 ft | 481 kts | 292° |
| 2026-05-07 15:30 | 21.10217 | -89.07645 | 26344 ft | 481 kts | 292° |
| 2026-05-07 15:30 | 21.11615 | -89.10911 | 26523 ft | 482 kts | 292° |
| 2026-05-07 15:30 | 21.12994 | -89.14136 | 26689 ft | 483 kts | 292° |
| 2026-05-07 15:30 | 21.14395 | -89.17411 | 26846 ft | 484 kts | 292° |
| 2026-05-07 15:31 | 21.15798 | -89.20694 | 27003 ft | 485 kts | 293° |
| 2026-05-07 15:31 | 21.17202 | -89.23981 | 27170 ft | 485 kts | 292° |
| 2026-05-07 15:31 | 21.18606 | -89.27272 | 27356 ft | 485 kts | 292° |
| 2026-05-07 15:31 | 21.20009 | -89.30561 | 27602 ft | 484 kts | 292° |
| 2026-05-07 15:32 | 21.21403 | -89.33833 | 27884 ft | 482 kts | 292° |
| 2026-05-07 15:32 | 21.22792 | -89.37091 | 28157 ft | 480 kts | 293° |
| 2026-05-07 15:32 | 21.24180 | -89.40352 | 28387 ft | 480 kts | 292° |
| 2026-05-07 15:32 | 21.25563 | -89.43603 | 28632 ft | 479 kts | 292° |
| 2026-05-07 15:33 | 21.26941 | -89.46845 | 28894 ft | 478 kts | 292° |
| 2026-05-07 15:33 | 21.28320 | -89.50088 | 29150 ft | 477 kts | 292° |
| 2026-05-07 15:33 | 21.29693 | -89.53322 | 29411 ft | 476 kts | 292° |
| 2026-05-07 15:33 | 21.31066 | -89.56557 | 29659 ft | 475 kts | 292° |
| 2026-05-07 15:34 | 21.32432 | -89.59781 | 29933 ft | 474 kts | 292° |
| 2026-05-07 15:34 | 21.33796 | -89.63000 | 30179 ft | 473 kts | 292° |
| 2026-05-07 15:34 | 21.35137 | -89.66168 | 30392 ft | 473 kts | 292° |
| 2026-05-07 15:34 | 21.36512 | -89.69416 | 30625 ft | 471 kts | 292° |
| 2026-05-07 15:35 | 21.37847 | -89.72572 | 30860 ft | 470 kts | 292° |
| 2026-05-07 15:35 | 21.39198 | -89.75769 | 31086 ft | 470 kts | 292° |
| 2026-05-07 15:35 | 21.40550 | -89.78967 | 31318 ft | 469 kts | 292° |
| 2026-05-07 15:35 | 21.41894 | -89.82153 | 31552 ft | 468 kts | 292° |
| 2026-05-07 15:36 | 21.43237 | -89.85335 | 31795 ft | 467 kts | 292° |
| 2026-05-07 15:36 | 21.44576 | -89.88512 | 32049 ft | 466 kts | 292° |
| 2026-05-07 15:36 | 21.45911 | -89.91678 | 32300 ft | 465 kts | 292° |
| 2026-05-07 15:36 | 21.47243 | -89.94842 | 32533 ft | 464 kts | 292° |
| 2026-05-07 15:37 | 21.48571 | -89.97999 | 32787 ft | 463 kts | 292° |
| 2026-05-07 15:37 | 21.49879 | -90.01109 | 33047 ft | 462 kts | 292° |
| 2026-05-07 15:37 | 21.51195 | -90.04240 | 33315 ft | 460 kts | 292° |
| 2026-05-07 15:37 | 21.52511 | -90.07373 | 33572 ft | 459 kts | 292° |
| 2026-05-07 15:38 | 21.53822 | -90.10496 | 33812 ft | 458 kts | 292° |
| 2026-05-07 15:38 | 21.55130 | -90.13616 | 33968 ft | 458 kts | 292° |
| 2026-05-07 15:38 | 21.57749 | -90.19864 | 33971 ft | 459 kts | 292° |
| 2026-05-07 15:39 | 21.60883 | -90.25836 | 33980 ft | 460 kts | 301° |
| 2026-05-07 15:39 | 21.63846 | -90.30583 | 33969 ft | 459 kts | 301° |
| 2026-05-07 15:40 | 21.67398 | -90.36286 | 33976 ft | 458 kts | 301° |
| 2026-05-07 15:40 | 21.70909 | -90.42011 | 33975 ft | 458 kts | 301° |
| 2026-05-07 15:41 | 21.74398 | -90.47735 | 33977 ft | 458 kts | 301° |
| 2026-05-07 15:41 | 21.77891 | -90.53470 | 33975 ft | 458 kts | 301° |
| 2026-05-07 15:42 | 21.81361 | -90.59169 | 33977 ft | 458 kts | 300° |
| 2026-05-07 15:42 | 21.84864 | -90.64914 | 33976 ft | 459 kts | 301° |
| 2026-05-07 15:43 | 21.88374 | -90.70670 | 33980 ft | 460 kts | 301° |
| 2026-05-07 15:43 | 21.91884 | -90.76434 | 33979 ft | 460 kts | 301° |
| 2026-05-07 15:44 | 21.95397 | -90.82212 | 33977 ft | 461 kts | 300° |
| 2026-05-07 15:44 | 21.98907 | -90.87990 | 33980 ft | 461 kts | 300° |
| 2026-05-07 15:45 | 22.02400 | -90.93748 | 33978 ft | 461 kts | 300° |
| 2026-05-07 15:45 | 22.05912 | -90.99543 | 33978 ft | 461 kts | 300° |
| 2026-05-07 15:46 | 22.11172 | -91.08234 | 33976 ft | 461 kts | 300° |
| 2026-05-07 15:47 | 22.14673 | -91.14026 | 33975 ft | 460 kts | 300° |
| 2026-05-07 15:47 | 22.18167 | -91.19812 | 33976 ft | 460 kts | 300° |
| 2026-05-07 15:48 | 22.21658 | -91.25602 | 33974 ft | 459 kts | 300° |
| 2026-05-07 15:48 | 22.25119 | -91.31347 | 33974 ft | 459 kts | 300° |
| 2026-05-07 15:49 | 22.28597 | -91.37125 | 33975 ft | 458 kts | 300° |
| 2026-05-07 15:49 | 22.32066 | -91.42898 | 33977 ft | 458 kts | 300° |
| 2026-05-07 15:50 | 22.35534 | -91.48674 | 33976 ft | 458 kts | 300° |
| 2026-05-07 15:50 | 22.38996 | -91.54445 | 33975 ft | 457 kts | 300° |
| 2026-05-07 15:51 | 22.42743 | -91.59962 | 33966 ft | 462 kts | 313° |
| 2026-05-07 15:51 | 22.48029 | -91.63978 | 33965 ft | 471 kts | 333° |
| 2026-05-07 15:52 | 22.54130 | -91.66606 | 33975 ft | 473 kts | 336° |
| 2026-05-07 15:52 | 22.60276 | -91.69172 | 33971 ft | 473 kts | 335° |
| 2026-05-07 15:53 | 22.66390 | -91.71811 | 33976 ft | 473 kts | 335° |
| 2026-05-07 15:53 | 22.72507 | -91.74489 | 33976 ft | 474 kts | 335° |
| 2026-05-07 15:54 | 22.78593 | -91.77152 | 33978 ft | 475 kts | 335° |
| 2026-05-07 15:54 | 22.84730 | -91.79837 | 33976 ft | 475 kts | 334° |
| 2026-05-07 15:55 | 22.90863 | -91.82524 | 33976 ft | 476 kts | 334° |
| 2026-05-07 15:55 | 22.96998 | -91.85215 | 33976 ft | 476 kts | 334° |
| 2026-05-07 15:56 | 23.03143 | -91.87913 | 33975 ft | 476 kts | 334° |
| 2026-05-07 15:56 | 23.09250 | -91.90597 | 33978 ft | 476 kts | 334° |
| 2026-05-07 15:57 | 23.15394 | -91.93300 | 33978 ft | 476 kts | 334° |
| 2026-05-07 15:57 | 23.21541 | -91.96012 | 33977 ft | 476 kts | 334° |
| 2026-05-07 15:58 | 23.27681 | -91.98726 | 33977 ft | 476 kts | 334° |
| 2026-05-07 15:58 | 23.33822 | -92.01442 | 33976 ft | 477 kts | 334° |
| 2026-05-07 15:59 | 23.39967 | -92.04164 | 33979 ft | 477 kts | 334° |
| 2026-05-07 15:59 | 23.46112 | -92.06887 | 33982 ft | 477 kts | 334° |
| 2026-05-07 16:00 | 23.52258 | -92.09614 | 33980 ft | 477 kts | 334° |
| 2026-05-07 16:00 | 23.58404 | -92.12344 | 33981 ft | 477 kts | 334° |
| 2026-05-07 16:01 | 23.64552 | -92.15077 | 33982 ft | 477 kts | 334° |
| 2026-05-07 16:01 | 23.70700 | -92.17814 | 33982 ft | 477 kts | 334° |
| 2026-05-07 16:02 | 23.76807 | -92.20534 | 33984 ft | 477 kts | 334° |
| 2026-05-07 16:02 | 23.82957 | -92.23278 | 33982 ft | 477 kts | 334° |
| 2026-05-07 16:03 | 23.89113 | -92.26029 | 33988 ft | 477 kts | 334° |
| 2026-05-07 16:03 | 23.95259 | -92.28778 | 33986 ft | 477 kts | 334° |
| 2026-05-07 16:04 | 24.01367 | -92.31514 | 33992 ft | 477 kts | 334° |
| 2026-05-07 16:04 | 24.07514 | -92.34270 | 33988 ft | 477 kts | 334° |
| 2026-05-07 16:05 | 24.13656 | -92.37027 | 33986 ft | 476 kts | 334° |
| 2026-05-07 16:05 | 24.19789 | -92.39782 | 33989 ft | 476 kts | 334° |
| 2026-05-07 16:06 | 24.25927 | -92.42542 | 33985 ft | 476 kts | 334° |
| 2026-05-07 16:06 | 24.32011 | -92.45282 | 33990 ft | 475 kts | 333° |
| 2026-05-07 16:07 | 24.38128 | -92.48039 | 33993 ft | 475 kts | 333° |
| 2026-05-07 16:07 | 24.44241 | -92.50798 | 33992 ft | 475 kts | 333° |
| 2026-05-07 16:08 | 24.50347 | -92.53575 | 33983 ft | 473 kts | 331° |
| 2026-05-07 16:08 | 24.56177 | -92.56873 | 33991 ft | 470 kts | 327° |
| 2026-05-07 16:09 | 24.61851 | -92.60342 | 33989 ft | 470 kts | 326° |
| 2026-05-07 16:09 | 24.67581 | -92.63824 | 33993 ft | 470 kts | 327° |
| 2026-05-07 16:10 | 24.73326 | -92.67267 | 33985 ft | 470 kts | 327° |
| 2026-05-07 16:10 | 24.79079 | -92.70696 | 33995 ft | 470 kts | 327° |
| 2026-05-07 16:11 | 24.84826 | -92.74121 | 33993 ft | 470 kts | 327° |
| 2026-05-07 16:11 | 24.90573 | -92.77552 | 33991 ft | 469 kts | 327° |
| 2026-05-07 16:12 | 24.96277 | -92.80962 | 33988 ft | 469 kts | 327° |
| 2026-05-07 16:12 | 25.02011 | -92.84395 | 33989 ft | 469 kts | 327° |
| 2026-05-07 16:13 | 25.07748 | -92.87833 | 33992 ft | 468 kts | 327° |
| 2026-05-07 16:13 | 25.13474 | -92.91268 | 33993 ft | 468 kts | 326° |
| 2026-05-07 16:14 | 25.19159 | -92.94682 | 33996 ft | 468 kts | 326° |
| 2026-05-07 16:14 | 25.24872 | -92.98117 | 33993 ft | 467 kts | 326° |
| 2026-05-07 16:15 | 25.30577 | -93.01550 | 33992 ft | 467 kts | 326° |
| 2026-05-07 16:15 | 25.36281 | -93.04986 | 33991 ft | 466 kts | 326° |
| 2026-05-07 16:16 | 25.41974 | -93.08420 | 33993 ft | 466 kts | 326° |
| 2026-05-07 16:16 | 25.47669 | -93.11858 | 33993 ft | 465 kts | 326° |
| 2026-05-07 16:17 | 25.53355 | -93.15295 | 33995 ft | 465 kts | 326° |
| 2026-05-07 16:17 | 25.58834 | -93.18611 | 33995 ft | 464 kts | 326° |
| 2026-05-07 16:18 | 25.64493 | -93.22039 | 33994 ft | 463 kts | 326° |
| 2026-05-07 16:18 | 25.70143 | -93.25465 | 33998 ft | 463 kts | 326° |
| 2026-05-07 16:19 | 25.75745 | -93.28866 | 33994 ft | 462 kts | 326° |
| 2026-05-07 16:19 | 25.81388 | -93.32295 | 33998 ft | 461 kts | 326° |
| 2026-05-07 16:20 | 25.87021 | -93.35722 | 33999 ft | 461 kts | 326° |
| 2026-05-07 16:20 | 25.92650 | -93.39151 | 33996 ft | 461 kts | 326° |
| 2026-05-07 16:21 | 25.98269 | -93.42577 | 33996 ft | 461 kts | 326° |
| 2026-05-07 16:21 | 26.03893 | -93.46010 | 33998 ft | 461 kts | 326° |
| 2026-05-07 16:22 | 26.09477 | -93.49422 | 33996 ft | 461 kts | 326° |
| 2026-05-07 16:22 | 26.15101 | -93.52863 | 34001 ft | 461 kts | 326° |
| 2026-05-07 16:23 | 26.20737 | -93.56315 | 33994 ft | 462 kts | 326° |
| 2026-05-07 16:23 | 26.26367 | -93.59767 | 33998 ft | 462 kts | 326° |
| 2026-05-07 16:24 | 26.32005 | -93.63227 | 33998 ft | 463 kts | 326° |
| 2026-05-07 16:24 | 26.37651 | -93.66697 | 34001 ft | 463 kts | 326° |
| 2026-05-07 16:25 | 26.43303 | -93.70175 | 34004 ft | 464 kts | 325° |
| 2026-05-07 16:25 | 26.48918 | -93.73633 | 34003 ft | 464 kts | 325° |
| 2026-05-07 16:26 | 26.54484 | -93.77231 | 34001 ft | 458 kts | 319° |
| 2026-05-07 16:26 | 26.59136 | -93.81925 | 34001 ft | 448 kts | 309° |
| 2026-05-07 16:27 | 26.63509 | -93.86880 | 34014 ft | 447 kts | 309° |
| 2026-05-07 16:27 | 26.67884 | -93.91816 | 33995 ft | 445 kts | 309° |
| 2026-05-07 16:28 | 26.72232 | -93.96680 | 34018 ft | 444 kts | 309° |
| 2026-05-07 16:28 | 26.76601 | -94.01552 | 34008 ft | 442 kts | 309° |
| 2026-05-07 16:29 | 26.80958 | -94.06413 | 34005 ft | 441 kts | 309° |
| 2026-05-07 16:29 | 26.85303 | -94.11266 | 34005 ft | 440 kts | 309° |
| 2026-05-07 16:30 | 26.89639 | -94.16117 | 34005 ft | 440 kts | 309° |
| 2026-05-07 16:30 | 26.93237 | -94.20145 | 34010 ft | 440 kts | 309° |
| 2026-05-07 16:31 | 26.98267 | -94.25785 | 34004 ft | 440 kts | 308° |
| 2026-05-07 16:31 | 27.02600 | -94.30648 | 34006 ft | 441 kts | 308° |
| 2026-05-07 16:32 | 27.06936 | -94.35521 | 34003 ft | 441 kts | 308° |
| 2026-05-07 16:32 | 27.10538 | -94.39573 | 34003 ft | 441 kts | 308° |
| 2026-05-07 16:33 | 27.14872 | -94.44454 | 34004 ft | 441 kts | 308° |
| 2026-05-07 16:33 | 27.19211 | -94.49345 | 34006 ft | 441 kts | 308° |
| 2026-05-07 16:34 | 27.23543 | -94.54235 | 34000 ft | 441 kts | 308° |
| 2026-05-07 16:34 | 27.27872 | -94.59127 | 34005 ft | 441 kts | 308° |
| 2026-05-07 16:35 | 27.32192 | -94.64013 | 34001 ft | 440 kts | 308° |
| 2026-05-07 16:35 | 27.36507 | -94.68901 | 33998 ft | 440 kts | 308° |
| 2026-05-07 16:36 | 27.40787 | -94.73755 | 33997 ft | 439 kts | 308° |
| 2026-05-07 16:36 | 27.45089 | -94.78639 | 33999 ft | 438 kts | 308° |
| 2026-05-07 16:37 | 27.49385 | -94.83523 | 33997 ft | 438 kts | 308° |
| 2026-05-07 16:37 | 27.53672 | -94.88402 | 33999 ft | 437 kts | 308° |
| 2026-05-07 16:38 | 27.57925 | -94.93247 | 33994 ft | 437 kts | 308° |
| 2026-05-07 16:38 | 27.62201 | -94.98125 | 33999 ft | 437 kts | 308° |
| 2026-05-07 16:39 | 27.66468 | -95.02999 | 34000 ft | 436 kts | 308° |
| 2026-05-07 16:39 | 27.70734 | -95.07876 | 34004 ft | 436 kts | 308° |
| 2026-05-07 16:40 | 27.74996 | -95.12756 | 34007 ft | 436 kts | 308° |
| 2026-05-07 16:40 | 27.79253 | -95.17635 | 34008 ft | 436 kts | 308° |
| 2026-05-07 16:41 | 27.83480 | -95.22485 | 34008 ft | 436 kts | 308° |
| 2026-05-07 16:41 | 27.87732 | -95.27370 | 34009 ft | 435 kts | 307° |
| 2026-05-07 16:42 | 27.91985 | -95.32261 | 34011 ft | 435 kts | 307° |
| 2026-05-07 16:42 | 27.96224 | -95.37143 | 34016 ft | 435 kts | 307° |
| 2026-05-07 16:43 | 28.00434 | -95.41997 | 34014 ft | 434 kts | 307° |
| 2026-05-07 16:43 | 28.04662 | -95.46878 | 34020 ft | 434 kts | 307° |
| 2026-05-07 16:44 | 28.08892 | -95.51766 | 34017 ft | 434 kts | 307° |
| 2026-05-07 16:44 | 28.13117 | -95.56655 | 34021 ft | 433 kts | 307° |
| 2026-05-07 16:45 | 28.17307 | -95.61509 | 34020 ft | 433 kts | 307° |
| 2026-05-07 16:45 | 28.21524 | -95.66400 | 34025 ft | 433 kts | 307° |